sensor_id;sensor_type;location;lat;lon;timestamp;P1;durP1;ratioP1;P2;durP2;ratioP2
50681;SDS011;36779;52.168;20.878;2023-07-13T00:01:32;10.40;;;5.30;;
50681;SDS011;36779;52.168;20.878;2023-07-13T00:04:05;10.90;;;5.50;;
50681;SDS011;36779;52.168;20.878;2023-07-13T00:06:37;10.80;;;5.30;;
50681;SDS011;36779;52.168;20.878;2023-07-13T00:09:20;10.10;;;5.90;;
50681;SDS011;36779;52.168;20.878;2023-07-13T00:11:55;9.50;;;5.70;;
50681;SDS011;36779;52.168;20.878;2023-07-13T00:14:31;13.70;;;6.00;;
50681;SDS011;36779;52.168;20.878;2023-07-13T00:17:17;9.50;;;6.10;;
50681;SDS011;36779;52.168;20.878;2023-07-13T00:19:52;12.60;;;7.00;;
50681;SDS011;36779;52.168;20.878;2023-07-13T00:22:28;11.30;;;6.70;;
50681;SDS011;36779;52.168;20.878;2023-07-13T00:25:01;10.30;;;6.70;;
50681;SDS011;36779;52.168;20.878;2023-07-13T00:27:33;9.60;;;6.20;;
50681;SDS011;36779;52.168;20.878;2023-07-13T00:30:08;11.80;;;6.50;;
50681;SDS011;36779;52.168;20.878;2023-07-13T00:33:04;9.60;;;5.40;;
50681;SDS011;36779;52.168;20.878;2023-07-13T00:35:49;10.20;;;6.40;;
50681;SDS011;36779;52.168;20.878;2023-07-13T00:38:26;11.80;;;6.00;;
50681;SDS011;36779;52.168;20.878;2023-07-13T00:41:00;10.60;;;6.00;;
50681;SDS011;36779;52.168;20.878;2023-07-13T00:43:35;12.00;;;6.80;;
50681;SDS011;36779;52.168;20.878;2023-07-13T00:46:29;10.00;;;6.60;;
50681;SDS011;36779;52.168;20.878;2023-07-13T00:49:08;13.20;;;6.90;;
50681;SDS011;36779;52.168;20.878;2023-07-13T00:51:54;12.30;;;7.50;;
50681;SDS011;36779;52.168;20.878;2023-07-13T00:54:51;14.20;;;7.10;;
50681;SDS011;36779;52.168;20.878;2023-07-13T00:57:27;14.20;;;6.70;;
50681;SDS011;36779;52.168;20.878;2023-07-13T01:00:02;10.20;;;6.70;;
50681;SDS011;36779;52.168;20.878;2023-07-13T01:02:39;10.70;;;7.40;;
50681;SDS011;36779;52.168;20.878;2023-07-13T01:05:28;12.10;;;6.30;;
50681;SDS011;36779;52.168;20.878;2023-07-13T01:08:01;9.50;;;6.40;;
50681;SDS011;36779;52.168;20.878;2023-07-13T01:10:38;16.70;;;7.40;;
50681;SDS011;36779;52.168;20.878;2023-07-13T01:13:22;8.60;;;6.20;;
50681;SDS011;36779;52.168;20.878;2023-07-13T01:15:56;12.80;;;6.60;;
50681;SDS011;36779;52.168;20.878;2023-07-13T01:18:34;12.40;;;6.50;;
50681;SDS011;36779;52.168;20.878;2023-07-13T01:21:07;13.50;;;7.00;;
50681;SDS011;36779;52.168;20.878;2023-07-13T01:23:51;11.60;;;6.20;;
50681;SDS011;36779;52.168;20.878;2023-07-13T01:26:27;10.10;;;6.40;;
50681;SDS011;36779;52.168;20.878;2023-07-13T01:29:01;9.00;;;5.80;;
50681;SDS011;36779;52.168;20.878;2023-07-13T01:31:33;8.90;;;6.10;;
50681;SDS011;36779;52.168;20.878;2023-07-13T01:34:06;9.80;;;6.00;;
50681;SDS011;36779;52.168;20.878;2023-07-13T01:36:43;10.40;;;6.80;;
50681;SDS011;36779;52.168;20.878;2023-07-13T01:39:45;10.80;;;6.60;;
50681;SDS011;36779;52.168;20.878;2023-07-13T01:42:32;11.50;;;6.80;;
50681;SDS011;36779;52.168;20.878;2023-07-13T01:45:05;10.30;;;6.20;;
50681;SDS011;36779;52.168;20.878;2023-07-13T01:47:39;9.90;;;5.60;;
50681;SDS011;36779;52.168;20.878;2023-07-13T01:50:25;13.20;;;6.90;;
50681;SDS011;36779;52.168;20.878;2023-07-13T01:53:00;11.30;;;6.70;;
50681;SDS011;36779;52.168;20.878;2023-07-13T01:55:35;12.10;;;7.10;;
50681;SDS011;36779;52.168;20.878;2023-07-13T01:58:07;12.60;;;6.70;;
50681;SDS011;36779;52.168;20.878;2023-07-13T02:00:52;14.00;;;7.20;;
50681;SDS011;36779;52.168;20.878;2023-07-13T02:03:24;10.20;;;6.40;;
50681;SDS011;36779;52.168;20.878;2023-07-13T02:06:01;12.40;;;6.40;;
50681;SDS011;36779;52.168;20.878;2023-07-13T02:08:34;10.10;;;6.10;;
50681;SDS011;36779;52.168;20.878;2023-07-13T02:11:21;10.40;;;6.70;;
50681;SDS011;36779;52.168;20.878;2023-07-13T02:14:02;12.60;;;7.40;;
50681;SDS011;36779;52.168;20.878;2023-07-13T02:16:35;12.00;;;6.30;;
50681;SDS011;36779;52.168;20.878;2023-07-13T02:19:18;9.20;;;6.40;;
50681;SDS011;36779;52.168;20.878;2023-07-13T02:21:53;11.00;;;6.60;;
50681;SDS011;36779;52.168;20.878;2023-07-13T02:24:51;11.80;;;7.60;;
50681;SDS011;36779;52.168;20.878;2023-07-13T02:27:26;11.90;;;7.30;;
50681;SDS011;36779;52.168;20.878;2023-07-13T02:30:00;13.00;;;7.90;;
50681;SDS011;36779;52.168;20.878;2023-07-13T02:32:35;13.30;;;7.50;;
50681;SDS011;36779;52.168;20.878;2023-07-13T02:35:08;14.00;;;7.40;;
50681;SDS011;36779;52.168;20.878;2023-07-13T02:37:40;12.00;;;6.40;;
50681;SDS011;36779;52.168;20.878;2023-07-13T02:40:27;11.00;;;6.30;;
50681;SDS011;36779;52.168;20.878;2023-07-13T02:43:03;10.20;;;5.60;;
50681;SDS011;36779;52.168;20.878;2023-07-13T02:45:35;11.00;;;6.70;;
50681;SDS011;36779;52.168;20.878;2023-07-13T02:48:09;12.50;;;6.40;;
50681;SDS011;36779;52.168;20.878;2023-07-13T02:50:52;9.80;;;5.80;;
50681;SDS011;36779;52.168;20.878;2023-07-13T02:53:25;12.50;;;5.90;;
50681;SDS011;36779;52.168;20.878;2023-07-13T02:55:57;13.80;;;6.90;;
50681;SDS011;36779;52.168;20.878;2023-07-13T02:58:29;9.90;;;6.10;;
50681;SDS011;36779;52.168;20.878;2023-07-13T03:01:05;11.70;;;6.80;;
50681;SDS011;36779;52.168;20.878;2023-07-13T03:03:42;11.30;;;6.20;;
50681;SDS011;36779;52.168;20.878;2023-07-13T03:06:18;11.90;;;6.80;;
50681;SDS011;36779;52.168;20.878;2023-07-13T03:08:57;9.10;;;6.20;;
50681;SDS011;36779;52.168;20.878;2023-07-13T03:11:31;9.90;;;6.30;;
50681;SDS011;36779;52.168;20.878;2023-07-13T03:14:10;11.00;;;6.40;;
50681;SDS011;36779;52.168;20.878;2023-07-13T03:16:44;8.90;;;5.90;;
50681;SDS011;36779;52.168;20.878;2023-07-13T03:19:24;11.00;;;5.70;;
50681;SDS011;36779;52.168;20.878;2023-07-13T03:21:58;9.70;;;5.90;;
50681;SDS011;36779;52.168;20.878;2023-07-13T03:24:37;8.80;;;5.50;;
50681;SDS011;36779;52.168;20.878;2023-07-13T03:27:10;9.00;;;5.30;;
50681;SDS011;36779;52.168;20.878;2023-07-13T03:29:44;9.90;;;6.00;;
50681;SDS011;36779;52.168;20.878;2023-07-13T03:32:20;10.20;;;5.60;;
50681;SDS011;36779;52.168;20.878;2023-07-13T03:34:53;10.30;;;5.80;;
50681;SDS011;36779;52.168;20.878;2023-07-13T03:37:27;9.70;;;5.50;;
50681;SDS011;36779;52.168;20.878;2023-07-13T03:39:59;11.50;;;6.10;;
50681;SDS011;36779;52.168;20.878;2023-07-13T03:42:32;10.40;;;6.20;;
50681;SDS011;36779;52.168;20.878;2023-07-13T03:45:05;10.70;;;5.30;;
50681;SDS011;36779;52.168;20.878;2023-07-13T03:47:39;9.70;;;6.00;;
50681;SDS011;36779;52.168;20.878;2023-07-13T03:50:11;11.20;;;6.30;;
50681;SDS011;36779;52.168;20.878;2023-07-13T03:52:53;8.00;;;5.60;;
50681;SDS011;36779;52.168;20.878;2023-07-13T03:55:27;9.30;;;5.90;;
50681;SDS011;36779;52.168;20.878;2023-07-13T03:58:24;11.40;;;7.10;;
50681;SDS011;36779;52.168;20.878;2023-07-13T04:01:01;11.10;;;6.60;;
50681;SDS011;36779;52.168;20.878;2023-07-13T04:03:37;10.30;;;6.20;;
50681;SDS011;36779;52.168;20.878;2023-07-13T04:06:12;9.00;;;5.70;;
50681;SDS011;36779;52.168;20.878;2023-07-13T04:08:53;12.00;;;6.40;;
50681;SDS011;36779;52.168;20.878;2023-07-13T04:11:30;9.80;;;6.30;;
50681;SDS011;36779;52.168;20.878;2023-07-13T04:14:05;11.80;;;6.70;;
50681;SDS011;36779;52.168;20.878;2023-07-13T04:16:37;11.80;;;6.50;;
50681;SDS011;36779;52.168;20.878;2023-07-13T04:19:10;20.70;;;7.40;;
50681;SDS011;36779;52.168;20.878;2023-07-13T04:21:45;10.00;;;7.00;;
50681;SDS011;36779;52.168;20.878;2023-07-13T04:24:29;11.20;;;7.90;;
50681;SDS011;36779;52.168;20.878;2023-07-13T04:27:01;14.40;;;9.20;;
50681;SDS011;36779;52.168;20.878;2023-07-13T04:29:36;18.00;;;10.30;;
50681;SDS011;36779;52.168;20.878;2023-07-13T04:32:09;15.00;;;9.60;;
50681;SDS011;36779;52.168;20.878;2023-07-13T04:34:42;17.10;;;10.00;;
50681;SDS011;36779;52.168;20.878;2023-07-13T04:37:19;14.20;;;10.60;;
50681;SDS011;36779;52.168;20.878;2023-07-13T04:39:55;14.30;;;9.90;;
50681;SDS011;36779;52.168;20.878;2023-07-13T04:42:28;14.60;;;8.70;;
50681;SDS011;36779;52.168;20.878;2023-07-13T04:45:00;12.40;;;8.70;;
50681;SDS011;36779;52.168;20.878;2023-07-13T04:47:32;18.80;;;9.70;;
50681;SDS011;36779;52.168;20.878;2023-07-13T04:50:05;14.30;;;8.40;;
50681;SDS011;36779;52.168;20.878;2023-07-13T04:52:40;14.60;;;8.10;;
50681;SDS011;36779;52.168;20.878;2023-07-13T04:55:15;14.50;;;7.90;;
50681;SDS011;36779;52.168;20.878;2023-07-13T04:57:50;12.60;;;8.30;;
50681;SDS011;36779;52.168;20.878;2023-07-13T05:00:26;13.80;;;9.00;;
50681;SDS011;36779;52.168;20.878;2023-07-13T05:02:59;17.10;;;8.80;;
50681;SDS011;36779;52.168;20.878;2023-07-13T05:05:31;12.40;;;8.70;;
50681;SDS011;36779;52.168;20.878;2023-07-13T05:08:06;13.50;;;8.70;;
50681;SDS011;36779;52.168;20.878;2023-07-13T05:10:39;12.70;;;8.40;;
50681;SDS011;36779;52.168;20.878;2023-07-13T05:13:14;13.70;;;8.50;;
50681;SDS011;36779;52.168;20.878;2023-07-13T05:15:56;14.60;;;9.30;;
50681;SDS011;36779;52.168;20.878;2023-07-13T05:18:33;14.40;;;8.40;;
50681;SDS011;36779;52.168;20.878;2023-07-13T05:21:12;12.70;;;8.50;;
50681;SDS011;36779;52.168;20.878;2023-07-13T05:23:45;14.50;;;7.70;;
50681;SDS011;36779;52.168;20.878;2023-07-13T05:26:17;10.00;;;7.60;;
50681;SDS011;36779;52.168;20.878;2023-07-13T05:28:53;14.60;;;9.30;;
50681;SDS011;36779;52.168;20.878;2023-07-13T05:31:34;13.40;;;8.40;;
50681;SDS011;36779;52.168;20.878;2023-07-13T05:34:10;10.50;;;7.20;;
50681;SDS011;36779;52.168;20.878;2023-07-13T05:36:43;12.90;;;8.00;;
50681;SDS011;36779;52.168;20.878;2023-07-13T05:39:16;14.20;;;8.30;;
50681;SDS011;36779;52.168;20.878;2023-07-13T05:41:51;13.20;;;8.00;;
50681;SDS011;36779;52.168;20.878;2023-07-13T05:44:36;15.00;;;9.20;;
50681;SDS011;36779;52.168;20.878;2023-07-13T05:47:18;12.90;;;9.10;;
50681;SDS011;36779;52.168;20.878;2023-07-13T05:49:55;14.10;;;11.80;;
50681;SDS011;36779;52.168;20.878;2023-07-13T05:52:31;16.20;;;12.00;;
50681;SDS011;36779;52.168;20.878;2023-07-13T05:55:12;17.50;;;12.40;;
50681;SDS011;36779;52.168;20.878;2023-07-13T05:57:44;16.00;;;13.20;;
50681;SDS011;36779;52.168;20.878;2023-07-13T06:00:19;17.20;;;11.90;;
50681;SDS011;36779;52.168;20.878;2023-07-13T06:02:57;18.10;;;12.30;;
50681;SDS011;36779;52.168;20.878;2023-07-13T06:05:31;21.10;;;15.00;;
50681;SDS011;36779;52.168;20.878;2023-07-13T06:08:13;19.50;;;12.90;;
50681;SDS011;36779;52.168;20.878;2023-07-13T06:10:45;15.80;;;11.00;;
50681;SDS011;36779;52.168;20.878;2023-07-13T06:13:18;19.00;;;11.50;;
50681;SDS011;36779;52.168;20.878;2023-07-13T06:15:51;16.60;;;12.20;;
50681;SDS011;36779;52.168;20.878;2023-07-13T06:18:23;17.30;;;11.90;;
50681;SDS011;36779;52.168;20.878;2023-07-13T06:20:55;17.50;;;11.70;;
50681;SDS011;36779;52.168;20.878;2023-07-13T06:23:30;17.10;;;11.00;;
50681;SDS011;36779;52.168;20.878;2023-07-13T06:26:02;15.60;;;12.70;;
50681;SDS011;36779;52.168;20.878;2023-07-13T06:28:38;18.20;;;12.30;;
50681;SDS011;36779;52.168;20.878;2023-07-13T06:31:11;16.50;;;11.70;;
50681;SDS011;36779;52.168;20.878;2023-07-13T06:33:44;17.70;;;13.20;;
50681;SDS011;36779;52.168;20.878;2023-07-13T06:36:16;13.00;;;9.20;;
50681;SDS011;36779;52.168;20.878;2023-07-13T06:38:49;13.20;;;10.40;;
50681;SDS011;36779;52.168;20.878;2023-07-13T06:41:23;14.70;;;10.10;;
50681;SDS011;36779;52.168;20.878;2023-07-13T06:43:55;12.80;;;9.90;;
50681;SDS011;36779;52.168;20.878;2023-07-13T06:46:31;12.00;;;9.70;;
50681;SDS011;36779;52.168;20.878;2023-07-13T06:49:07;12.10;;;9.90;;
50681;SDS011;36779;52.168;20.878;2023-07-13T06:51:45;11.00;;;9.90;;
50681;SDS011;36779;52.168;20.878;2023-07-13T06:54:17;13.00;;;9.80;;
50681;SDS011;36779;52.168;20.878;2023-07-13T06:56:50;11.10;;;8.10;;
50681;SDS011;36779;52.168;20.878;2023-07-13T06:59:22;12.80;;;8.80;;
50681;SDS011;36779;52.168;20.878;2023-07-13T07:01:55;9.30;;;8.00;;
50681;SDS011;36779;52.168;20.878;2023-07-13T07:04:46;7.90;;;6.50;;
50681;SDS011;36779;52.168;20.878;2023-07-13T07:07:19;6.60;;;5.40;;
50681;SDS011;36779;52.168;20.878;2023-07-13T07:09:55;5.10;;;4.60;;
50681;SDS011;36779;52.168;20.878;2023-07-13T07:12:30;5.10;;;4.40;;
50681;SDS011;36779;52.168;20.878;2023-07-13T07:15:09;4.00;;;3.20;;
50681;SDS011;36779;52.168;20.878;2023-07-13T07:17:42;3.50;;;2.80;;
50681;SDS011;36779;52.168;20.878;2023-07-13T07:20:23;4.60;;;3.50;;
50681;SDS011;36779;52.168;20.878;2023-07-13T07:23:00;8.00;;;3.90;;
50681;SDS011;36779;52.168;20.878;2023-07-13T07:25:32;6.30;;;4.40;;
50681;SDS011;36779;52.168;20.878;2023-07-13T07:28:14;6.40;;;4.30;;
50681;SDS011;36779;52.168;20.878;2023-07-13T07:30:54;6.00;;;4.40;;
50681;SDS011;36779;52.168;20.878;2023-07-13T07:33:34;6.00;;;4.10;;
50681;SDS011;36779;52.168;20.878;2023-07-13T07:36:09;6.70;;;4.90;;
50681;SDS011;36779;52.168;20.878;2023-07-13T07:38:45;6.00;;;4.60;;
50681;SDS011;36779;52.168;20.878;2023-07-13T07:41:19;6.70;;;4.70;;
50681;SDS011;36779;52.168;20.878;2023-07-13T07:44:03;6.30;;;4.80;;
50681;SDS011;36779;52.168;20.878;2023-07-13T07:46:39;7.90;;;5.10;;
50681;SDS011;36779;52.168;20.878;2023-07-13T07:49:12;8.00;;;5.00;;
50681;SDS011;36779;52.168;20.878;2023-07-13T07:51:45;7.10;;;3.90;;
50681;SDS011;36779;52.168;20.878;2023-07-13T07:54:18;6.60;;;3.90;;
50681;SDS011;36779;52.168;20.878;2023-07-13T07:57:10;5.70;;;4.10;;
50681;SDS011;36779;52.168;20.878;2023-07-13T07:59:46;8.20;;;4.70;;
50681;SDS011;36779;52.168;20.878;2023-07-13T08:02:21;5.70;;;4.50;;
50681;SDS011;36779;52.168;20.878;2023-07-13T08:04:58;5.90;;;5.00;;
50681;SDS011;36779;52.168;20.878;2023-07-13T08:07:36;6.00;;;3.90;;
50681;SDS011;36779;52.168;20.878;2023-07-13T08:10:09;4.70;;;4.00;;
50681;SDS011;36779;52.168;20.878;2023-07-13T08:12:42;4.50;;;3.60;;
50681;SDS011;36779;52.168;20.878;2023-07-13T08:17:51;6.60;;;4.70;;
50681;SDS011;36779;52.168;20.878;2023-07-13T08:20:27;6.00;;;4.50;;
50681;SDS011;36779;52.168;20.878;2023-07-13T08:22:59;5.00;;;4.40;;
50681;SDS011;36779;52.168;20.878;2023-07-13T08:25:32;7.60;;;5.70;;
50681;SDS011;36779;52.168;20.878;2023-07-13T08:28:05;7.40;;;6.00;;
50681;SDS011;36779;52.168;20.878;2023-07-13T08:30:40;7.50;;;6.00;;
50681;SDS011;36779;52.168;20.878;2023-07-13T08:33:13;9.20;;;5.70;;
50681;SDS011;36779;52.168;20.878;2023-07-13T08:35:46;8.60;;;6.40;;
50681;SDS011;36779;52.168;20.878;2023-07-13T08:38:18;7.50;;;6.70;;
50681;SDS011;36779;52.168;20.878;2023-07-13T08:40:53;8.10;;;7.40;;
50681;SDS011;36779;52.168;20.878;2023-07-13T08:43:28;8.50;;;7.10;;
50681;SDS011;36779;52.168;20.878;2023-07-13T08:46:07;9.20;;;7.00;;
50681;SDS011;36779;52.168;20.878;2023-07-13T08:48:47;7.80;;;7.00;;
50681;SDS011;36779;52.168;20.878;2023-07-13T08:51:30;8.40;;;7.10;;
50681;SDS011;36779;52.168;20.878;2023-07-13T08:54:10;9.30;;;7.50;;
50681;SDS011;36779;52.168;20.878;2023-07-13T08:56:51;8.60;;;7.60;;
50681;SDS011;36779;52.168;20.878;2023-07-13T08:59:44;10.10;;;7.40;;
50681;SDS011;36779;52.168;20.878;2023-07-13T09:02:26;8.90;;;7.20;;
50681;SDS011;36779;52.168;20.878;2023-07-13T09:05:08;9.40;;;7.40;;
50681;SDS011;36779;52.168;20.878;2023-07-13T09:07:55;7.70;;;7.00;;
50681;SDS011;36779;52.168;20.878;2023-07-13T09:10:43;9.50;;;7.10;;
50681;SDS011;36779;52.168;20.878;2023-07-13T09:13:22;10.20;;;7.50;;
50681;SDS011;36779;52.168;20.878;2023-07-13T09:16:05;9.30;;;7.80;;
50681;SDS011;36779;52.168;20.878;2023-07-13T09:18:41;7.90;;;7.10;;
50681;SDS011;36779;52.168;20.878;2023-07-13T09:21:17;8.30;;;7.20;;
50681;SDS011;36779;52.168;20.878;2023-07-13T09:23:53;8.50;;;7.60;;
50681;SDS011;36779;52.168;20.878;2023-07-13T09:26:29;8.70;;;7.40;;
50681;SDS011;36779;52.168;20.878;2023-07-13T09:29:20;8.60;;;7.30;;
50681;SDS011;36779;52.168;20.878;2023-07-13T09:32:06;8.40;;;7.50;;
50681;SDS011;36779;52.168;20.878;2023-07-13T09:34:42;8.00;;;7.20;;
50681;SDS011;36779;52.168;20.878;2023-07-13T09:37:21;9.70;;;8.00;;
50681;SDS011;36779;52.168;20.878;2023-07-13T09:40:00;8.20;;;7.30;;
50681;SDS011;36779;52.168;20.878;2023-07-13T09:42:40;7.90;;;7.10;;
50681;SDS011;36779;52.168;20.878;2023-07-13T09:45:16;7.70;;;6.90;;
50681;SDS011;36779;52.168;20.878;2023-07-13T09:48:03;8.30;;;7.30;;
50681;SDS011;36779;52.168;20.878;2023-07-13T09:50:38;8.40;;;6.90;;
50681;SDS011;36779;52.168;20.878;2023-07-13T09:53:14;7.20;;;6.60;;
50681;SDS011;36779;52.168;20.878;2023-07-13T09:56:02;8.70;;;7.60;;
50681;SDS011;36779;52.168;20.878;2023-07-13T09:58:34;11.30;;;7.50;;
50681;SDS011;36779;52.168;20.878;2023-07-13T10:01:09;7.60;;;6.80;;
50681;SDS011;36779;52.168;20.878;2023-07-13T10:03:53;9.70;;;5.20;;
50681;SDS011;36779;52.168;20.878;2023-07-13T10:06:27;7.40;;;4.50;;
50681;SDS011;36779;52.168;20.878;2023-07-13T10:09:02;6.20;;;4.20;;
50681;SDS011;36779;52.168;20.878;2023-07-13T10:11:43;5.60;;;4.50;;
50681;SDS011;36779;52.168;20.878;2023-07-13T10:14:16;6.20;;;4.30;;
50681;SDS011;36779;52.168;20.878;2023-07-13T10:16:56;6.10;;;4.50;;
50681;SDS011;36779;52.168;20.878;2023-07-13T10:19:41;5.50;;;4.40;;
50681;SDS011;36779;52.168;20.878;2023-07-13T10:22:17;10.00;;;4.50;;
50681;SDS011;36779;52.168;20.878;2023-07-13T10:25:01;6.20;;;4.30;;
50681;SDS011;36779;52.168;20.878;2023-07-13T10:27:43;6.80;;;4.10;;
50681;SDS011;36779;52.168;20.878;2023-07-13T10:30:19;8.60;;;4.20;;
50681;SDS011;36779;52.168;20.878;2023-07-13T10:32:58;11.20;;;4.70;;
50681;SDS011;36779;52.168;20.878;2023-07-13T10:35:33;15.50;;;4.60;;
50681;SDS011;36779;52.168;20.878;2023-07-13T10:38:06;19.60;;;6.40;;
50681;SDS011;36779;52.168;20.878;2023-07-13T10:40:42;10.70;;;4.70;;
50681;SDS011;36779;52.168;20.878;2023-07-13T10:43:34;12.60;;;5.20;;
50681;SDS011;36779;52.168;20.878;2023-07-13T10:46:13;14.90;;;4.50;;
50681;SDS011;36779;52.168;20.878;2023-07-13T10:48:51;13.70;;;4.70;;
50681;SDS011;36779;52.168;20.878;2023-07-13T10:51:29;10.60;;;3.90;;
50681;SDS011;36779;52.168;20.878;2023-07-13T10:54:18;5.10;;;3.30;;
50681;SDS011;36779;52.168;20.878;2023-07-13T10:57:10;6.20;;;2.40;;
50681;SDS011;36779;52.168;20.878;2023-07-13T10:59:48;7.60;;;3.40;;
50681;SDS011;36779;52.168;20.878;2023-07-13T11:02:43;6.50;;;2.80;;
50681;SDS011;36779;52.168;20.878;2023-07-13T11:05:31;5.40;;;3.00;;
50681;SDS011;36779;52.168;20.878;2023-07-13T11:08:14;7.20;;;3.20;;
50681;SDS011;36779;52.168;20.878;2023-07-13T11:10:51;6.30;;;3.00;;
50681;SDS011;36779;52.168;20.878;2023-07-13T11:13:55;4.80;;;3.00;;
50681;SDS011;36779;52.168;20.878;2023-07-13T11:16:41;7.00;;;3.20;;
50681;SDS011;36779;52.168;20.878;2023-07-13T11:19:27;5.70;;;3.10;;
50681;SDS011;36779;52.168;20.878;2023-07-13T11:22:15;6.40;;;2.70;;
50681;SDS011;36779;52.168;20.878;2023-07-13T11:24:53;6.80;;;3.10;;
50681;SDS011;36779;52.168;20.878;2023-07-13T11:27:36;4.20;;;3.10;;
50681;SDS011;36779;52.168;20.878;2023-07-13T11:30:22;5.20;;;3.30;;
50681;SDS011;36779;52.168;20.878;2023-07-13T11:33:13;6.40;;;3.90;;
50681;SDS011;36779;52.168;20.878;2023-07-13T11:35:50;6.20;;;3.10;;
50681;SDS011;36779;52.168;20.878;2023-07-13T11:38:34;7.00;;;3.10;;
50681;SDS011;36779;52.168;20.878;2023-07-13T11:41:15;6.90;;;2.80;;
50681;SDS011;36779;52.168;20.878;2023-07-13T11:43:53;3.60;;;2.60;;
50681;SDS011;36779;52.168;20.878;2023-07-13T11:46:32;4.00;;;2.40;;
50681;SDS011;36779;52.168;20.878;2023-07-13T11:49:05;3.80;;;2.50;;
50681;SDS011;36779;52.168;20.878;2023-07-13T11:51:38;6.30;;;2.70;;
50681;SDS011;36779;52.168;20.878;2023-07-13T11:54:14;5.50;;;2.90;;
50681;SDS011;36779;52.168;20.878;2023-07-13T11:56:58;6.60;;;2.60;;
50681;SDS011;36779;52.168;20.878;2023-07-13T11:59:43;6.20;;;3.20;;
50681;SDS011;36779;52.168;20.878;2023-07-13T12:02:21;5.50;;;3.10;;
50681;SDS011;36779;52.168;20.878;2023-07-13T12:04:59;5.00;;;2.50;;
50681;SDS011;36779;52.168;20.878;2023-07-13T12:07:38;6.60;;;2.60;;
50681;SDS011;36779;52.168;20.878;2023-07-13T12:10:19;4.50;;;2.30;;
50681;SDS011;36779;52.168;20.878;2023-07-13T12:12:57;3.70;;;2.40;;
50681;SDS011;36779;52.168;20.878;2023-07-13T12:15:36;6.70;;;2.40;;
50681;SDS011;36779;52.168;20.878;2023-07-13T12:18:14;6.40;;;2.80;;
50681;SDS011;36779;52.168;20.878;2023-07-13T12:20:50;5.10;;;2.70;;
50681;SDS011;36779;52.168;20.878;2023-07-13T12:23:28;8.40;;;3.40;;
50681;SDS011;36779;52.168;20.878;2023-07-13T12:26:10;4.40;;;2.70;;
50681;SDS011;36779;52.168;20.878;2023-07-13T12:28:46;5.30;;;3.20;;
50681;SDS011;36779;52.168;20.878;2023-07-13T12:31:30;7.50;;;3.00;;
50681;SDS011;36779;52.168;20.878;2023-07-13T12:34:07;8.20;;;3.20;;
50681;SDS011;36779;52.168;20.878;2023-07-13T12:36:47;4.70;;;2.80;;
50681;SDS011;36779;52.168;20.878;2023-07-13T12:39:21;5.90;;;3.40;;
50681;SDS011;36779;52.168;20.878;2023-07-13T12:42:13;8.20;;;2.80;;
50681;SDS011;36779;52.168;20.878;2023-07-13T12:44:56;5.60;;;2.90;;
50681;SDS011;36779;52.168;20.878;2023-07-13T12:47:40;8.40;;;3.70;;
50681;SDS011;36779;52.168;20.878;2023-07-13T12:50:22;6.60;;;3.40;;
50681;SDS011;36779;52.168;20.878;2023-07-13T12:53:04;4.50;;;2.60;;
50681;SDS011;36779;52.168;20.878;2023-07-13T12:55:46;5.80;;;3.50;;
50681;SDS011;36779;52.168;20.878;2023-07-13T12:58:24;7.00;;;3.10;;
50681;SDS011;36779;52.168;20.878;2023-07-13T13:00:58;5.60;;;3.50;;
50681;SDS011;36779;52.168;20.878;2023-07-13T13:03:32;5.50;;;3.60;;
50681;SDS011;36779;52.168;20.878;2023-07-13T13:06:20;7.40;;;3.50;;
50681;SDS011;36779;52.168;20.878;2023-07-13T13:08:54;5.20;;;3.40;;
50681;SDS011;36779;52.168;20.878;2023-07-13T13:11:29;5.70;;;3.60;;
50681;SDS011;36779;52.168;20.878;2023-07-13T13:14:08;6.40;;;3.30;;
50681;SDS011;36779;52.168;20.878;2023-07-13T13:16:47;7.10;;;3.20;;
50681;SDS011;36779;52.168;20.878;2023-07-13T13:19:21;6.90;;;3.60;;
50681;SDS011;36779;52.168;20.878;2023-07-13T13:22:02;5.60;;;3.30;;
50681;SDS011;36779;52.168;20.878;2023-07-13T13:24:38;5.90;;;3.50;;
50681;SDS011;36779;52.168;20.878;2023-07-13T13:27:15;5.30;;;3.20;;
50681;SDS011;36779;52.168;20.878;2023-07-13T13:29:51;5.50;;;3.40;;
50681;SDS011;36779;52.168;20.878;2023-07-13T13:32:27;7.00;;;3.70;;
50681;SDS011;36779;52.168;20.878;2023-07-13T13:35:00;6.90;;;3.50;;
50681;SDS011;36779;52.168;20.878;2023-07-13T13:37:33;6.30;;;3.40;;
50681;SDS011;36779;52.168;20.878;2023-07-13T13:40:11;9.10;;;3.40;;
50681;SDS011;36779;52.168;20.878;2023-07-13T13:42:51;6.10;;;3.60;;
50681;SDS011;36779;52.168;20.878;2023-07-13T13:45:30;8.30;;;4.30;;
50681;SDS011;36779;52.168;20.878;2023-07-13T13:48:03;6.50;;;3.60;;
50681;SDS011;36779;52.168;20.878;2023-07-13T13:50:36;6.20;;;3.30;;
50681;SDS011;36779;52.168;20.878;2023-07-13T13:53:09;6.60;;;3.60;;
50681;SDS011;36779;52.168;20.878;2023-07-13T13:55:46;6.20;;;3.00;;
50681;SDS011;36779;52.168;20.878;2023-07-13T13:58:17;6.10;;;3.60;;
50681;SDS011;36779;52.168;20.878;2023-07-13T14:00:51;4.80;;;3.00;;
50681;SDS011;36779;52.168;20.878;2023-07-13T14:03:24;6.20;;;3.20;;
50681;SDS011;36779;52.168;20.878;2023-07-13T14:06:05;9.60;;;5.40;;
50681;SDS011;36779;52.168;20.878;2023-07-13T14:08:42;3.90;;;3.30;;
50681;SDS011;36779;52.168;20.878;2023-07-13T14:11:16;4.40;;;3.40;;
50681;SDS011;36779;52.168;20.878;2023-07-13T14:13:53;5.40;;;3.60;;
50681;SDS011;36779;52.168;20.878;2023-07-13T14:16:30;7.00;;;3.30;;
50681;SDS011;36779;52.168;20.878;2023-07-13T14:19:07;6.10;;;3.30;;
50681;SDS011;36779;52.168;20.878;2023-07-13T14:21:41;4.00;;;3.10;;
50681;SDS011;36779;52.168;20.878;2023-07-13T14:24:13;7.30;;;3.70;;
50681;SDS011;36779;52.168;20.878;2023-07-13T14:26:45;7.10;;;3.40;;
50681;SDS011;36779;52.168;20.878;2023-07-13T14:29:18;7.20;;;4.10;;
50681;SDS011;36779;52.168;20.878;2023-07-13T14:31:53;6.70;;;3.90;;
50681;SDS011;36779;52.168;20.878;2023-07-13T14:34:43;6.20;;;3.90;;
50681;SDS011;36779;52.168;20.878;2023-07-13T14:37:15;9.50;;;4.80;;
50681;SDS011;36779;52.168;20.878;2023-07-13T14:39:48;7.00;;;4.30;;
50681;SDS011;36779;52.168;20.878;2023-07-13T14:42:23;10.40;;;4.70;;
50681;SDS011;36779;52.168;20.878;2023-07-13T14:44:57;6.90;;;4.40;;
50681;SDS011;36779;52.168;20.878;2023-07-13T14:47:33;5.20;;;4.20;;
50681;SDS011;36779;52.168;20.878;2023-07-13T14:50:07;9.80;;;5.10;;
50681;SDS011;36779;52.168;20.878;2023-07-13T14:52:49;7.90;;;4.90;;
50681;SDS011;36779;52.168;20.878;2023-07-13T14:55:24;8.30;;;5.00;;
50681;SDS011;36779;52.168;20.878;2023-07-13T14:57:59;8.30;;;5.30;;
50681;SDS011;36779;52.168;20.878;2023-07-13T15:00:32;10.30;;;5.00;;
50681;SDS011;36779;52.168;20.878;2023-07-13T15:03:12;9.90;;;5.50;;
50681;SDS011;36779;52.168;20.878;2023-07-13T15:05:54;7.80;;;5.20;;
50681;SDS011;36779;52.168;20.878;2023-07-13T15:08:34;10.20;;;5.60;;
50681;SDS011;36779;52.168;20.878;2023-07-13T15:11:11;8.90;;;5.30;;
50681;SDS011;36779;52.168;20.878;2023-07-13T15:13:43;8.20;;;5.50;;
50681;SDS011;36779;52.168;20.878;2023-07-13T15:16:16;10.70;;;5.20;;
50681;SDS011;36779;52.168;20.878;2023-07-13T15:18:53;11.60;;;5.70;;
50681;SDS011;36779;52.168;20.878;2023-07-13T15:21:32;7.20;;;5.10;;
50681;SDS011;36779;52.168;20.878;2023-07-13T15:24:08;8.20;;;5.60;;
50681;SDS011;36779;52.168;20.878;2023-07-13T15:26:42;10.60;;;5.20;;
50681;SDS011;36779;52.168;20.878;2023-07-13T15:29:18;8.30;;;5.60;;
50681;SDS011;36779;52.168;20.878;2023-07-13T15:31:50;7.80;;;5.30;;